createdAt,value
2023-07-26T00:02:22.812Z,11.58
2023-07-26T00:04:49.552Z,11.58
2023-07-26T00:07:15.981Z,11.59
2023-07-26T00:09:42.535Z,11.58
2023-07-26T00:12:09.001Z,11.56
2023-07-26T00:14:35.596Z,11.43
2023-07-26T00:17:02.778Z,11.45
2023-07-26T00:19:29.905Z,11.34
2023-07-26T00:21:56.477Z,11.41
2023-07-26T00:24:23.071Z,11.31
2023-07-26T00:26:49.673Z,11.37
2023-07-26T00:29:16.098Z,11.42
2023-07-26T00:31:42.761Z,11.36
2023-07-26T00:34:09.226Z,11.34
2023-07-26T00:36:35.949Z,11.46
2023-07-26T00:39:04.436Z,11.31
2023-07-26T00:41:31.219Z,11.34
2023-07-26T00:43:57.811Z,11.40
2023-07-26T00:46:27.888Z,11.34
2023-07-26T00:48:54.876Z,11.34
2023-07-26T00:51:22.940Z,11.27
2023-07-26T00:53:49.660Z,11.26
2023-07-26T00:56:16.245Z,11.37
2023-07-26T00:58:42.709Z,11.29
2023-07-26T01:01:09.255Z,11.28
2023-07-26T01:03:35.809Z,11.32
2023-07-26T01:06:11.054Z,11.36
2023-07-26T01:09:03.603Z,11.21
2023-07-26T01:11:45.931Z,11.25
2023-07-26T01:14:22.536Z,11.35
2023-07-26T01:16:49.679Z,11.38
2023-07-26T01:19:16.245Z,11.37
2023-07-26T01:21:42.698Z,11.40
2023-07-26T01:24:09.142Z,11.36
2023-07-26T01:26:36.054Z,11.26
2023-07-26T01:29:02.705Z,11.23
2023-07-26T01:31:29.491Z,11.13
2023-07-26T01:33:59.430Z,11.12
2023-07-26T01:36:27.747Z,11.00
2023-07-26T01:38:54.727Z,11.05
2023-07-26T01:41:23.563Z,10.95
2023-07-26T01:43:50.086Z,11.05
2023-07-26T01:46:16.683Z,10.94
2023-07-26T01:48:43.185Z,11.06
2023-07-26T01:51:09.841Z,11.11
2023-07-26T01:53:36.384Z,11.06
2023-07-26T01:56:03.744Z,10.99
2023-07-26T01:58:31.096Z,10.94
2023-07-26T02:01:00.124Z,10.86
2023-07-26T02:03:27.303Z,10.86
2023-07-26T02:05:53.910Z,10.85
2023-07-26T02:08:20.878Z,10.82
2023-07-26T02:10:48.244Z,10.76
2023-07-26T02:13:14.763Z,10.74
2023-07-26T02:15:41.559Z,10.86
2023-07-26T02:18:08.108Z,10.89
2023-07-26T02:20:35.225Z,10.96
2023-07-26T02:23:02.688Z,10.81
2023-07-26T02:25:30.003Z,10.80
2023-07-26T02:27:59.887Z,10.81
2023-07-26T02:30:27.018Z,10.74
2023-07-26T02:32:54.263Z,10.73
2023-07-26T02:35:20.760Z,10.74
2023-07-26T02:37:47.465Z,10.69
2023-07-26T02:40:14.134Z,10.75
2023-07-26T02:42:40.817Z,10.81
2023-07-26T02:45:07.715Z,10.77
2023-07-26T02:47:34.480Z,10.76
2023-07-26T02:50:03.933Z,10.83
2023-07-26T02:52:34.183Z,10.84
2023-07-26T02:55:01.141Z,10.82
2023-07-26T02:57:27.753Z,10.90
2023-07-26T02:59:54.532Z,10.91
2023-07-26T03:02:21.037Z,10.88
2023-07-26T03:04:47.764Z,10.80
2023-07-26T03:07:14.341Z,10.78
2023-07-26T03:09:40.798Z,10.81
2023-07-26T03:12:07.743Z,10.86
2023-07-26T03:14:34.319Z,10.82
2023-07-26T03:17:12.354Z,10.90
2023-07-26T03:19:47.602Z,10.92
2023-07-26T03:22:14.089Z,10.86
2023-07-26T03:24:40.603Z,10.85
2023-07-26T03:27:08.651Z,10.81
2023-07-26T03:29:35.358Z,10.80
2023-07-26T03:32:01.965Z,10.80
2023-07-26T03:34:28.815Z,10.79
2023-07-26T03:36:55.510Z,10.81
2023-07-26T03:39:22.061Z,10.78
2023-07-26T03:41:48.936Z,10.83
2023-07-26T03:44:15.574Z,10.85
2023-07-26T03:46:43.262Z,10.96
2023-07-26T03:49:11.431Z,10.97
2023-07-26T03:51:38.250Z,10.97
2023-07-26T03:54:04.903Z,10.94
2023-07-26T03:56:31.653Z,10.98
2023-07-26T03:58:59.254Z,10.93
2023-07-26T04:01:26.824Z,10.90
2023-07-26T04:03:53.564Z,10.92
2023-07-26T04:06:20.103Z,10.99
2023-07-26T04:08:47.493Z,11.05
2023-07-26T04:11:13.930Z,11.06
2023-07-26T04:13:40.353Z,11.07
2023-07-26T04:16:33.368Z,11.17
2023-07-26T04:19:00.208Z,11.18
2023-07-26T04:21:26.742Z,11.20
2023-07-26T04:23:53.180Z,11.29
2023-07-26T04:26:20.460Z,11.29
2023-07-26T04:28:49.700Z,11.28
2023-07-26T04:31:16.143Z,11.24
2023-07-26T04:33:42.666Z,11.42
2023-07-26T04:36:09.157Z,11.47
2023-07-26T04:38:35.634Z,11.51
2023-07-26T04:41:04.817Z,11.54
2023-07-26T04:43:31.377Z,11.60
2023-07-26T04:45:58.131Z,11.54
2023-07-26T04:48:24.675Z,11.63
2023-07-26T04:50:51.150Z,11.64
2023-07-26T04:53:17.982Z,11.64
2023-07-26T04:55:46.526Z,11.69
2023-07-26T04:58:13.809Z,11.76
2023-07-26T05:00:41.253Z,11.85
2023-07-26T05:03:08.942Z,11.91
2023-07-26T05:05:35.852Z,11.96
2023-07-26T05:08:02.778Z,12.08
2023-07-26T05:10:30.331Z,12.14
2023-07-26T05:12:58.384Z,12.24
2023-07-26T05:15:25.256Z,12.31
2023-07-26T05:17:52.505Z,12.43
2023-07-26T05:20:19.138Z,12.37
2023-07-26T05:22:45.875Z,12.51
2023-07-26T05:25:12.414Z,12.73
2023-07-26T05:27:38.877Z,12.72
2023-07-26T05:30:06.164Z,12.83
2023-07-26T05:32:32.978Z,12.96
2023-07-26T05:34:59.851Z,12.87
2023-07-26T05:37:26.502Z,12.87
2023-07-26T05:39:53.157Z,12.88
2023-07-26T05:42:19.886Z,12.88
2023-07-26T05:44:46.717Z,12.91
2023-07-26T05:47:14.826Z,12.81
2023-07-26T05:49:45.019Z,12.86
2023-07-26T05:52:11.929Z,12.87
2023-07-26T05:54:38.354Z,13.01
2023-07-26T05:57:05.415Z,13.03
2023-07-26T05:59:32.176Z,13.16
2023-07-26T06:01:59.600Z,13.22
2023-07-26T06:04:26.342Z,13.30
2023-07-26T06:06:52.864Z,13.48
2023-07-26T06:09:22.072Z,13.39
2023-07-26T06:11:56.729Z,13.46
2023-07-26T06:14:25.772Z,13.44
2023-07-26T06:16:53.064Z,13.56
2023-07-26T06:19:19.582Z,13.64
2023-07-26T06:21:46.580Z,13.69
2023-07-26T06:24:13.367Z,13.68
2023-07-26T06:26:39.928Z,13.80
2023-07-26T06:29:06.419Z,13.85
2023-07-26T06:31:33.318Z,13.99
2023-07-26T06:34:00.509Z,13.98
2023-07-26T06:36:27.046Z,13.85
2023-07-26T06:38:53.492Z,14.00
2023-07-26T06:41:19.958Z,13.87
2023-07-26T06:43:47.609Z,13.80
2023-07-26T06:46:14.319Z,13.75
2023-07-26T06:48:42.568Z,13.85
2023-07-26T06:51:10.967Z,13.85
2023-07-26T06:53:37.391Z,13.78
2023-07-26T06:56:03.915Z,13.81
2023-07-26T06:58:30.421Z,13.88
2023-07-26T07:00:56.933Z,13.98
2023-07-26T07:03:23.405Z,14.04
2023-07-26T07:05:49.981Z,14.11
2023-07-26T07:08:16.375Z,14.21
2023-07-26T07:10:42.817Z,14.35
2023-07-26T07:13:09.280Z,14.46
2023-07-26T07:15:35.897Z,14.41
2023-07-26T07:18:15.202Z,14.58
2023-07-26T07:20:42.195Z,14.54
2023-07-26T07:23:09.895Z,14.54
2023-07-26T07:25:39.516Z,14.65
2023-07-26T07:28:06.293Z,14.52
2023-07-26T07:30:33.691Z,14.55
2023-07-26T07:33:00.638Z,14.86
2023-07-26T07:35:27.336Z,14.99
2023-07-26T07:37:53.776Z,14.95
2023-07-26T07:40:20.197Z,15.32
2023-07-26T07:42:47.070Z,15.15
2023-07-26T07:45:13.686Z,15.32
2023-07-26T07:47:40.212Z,15.57
2023-07-26T07:50:07.179Z,15.76
2023-07-26T07:52:33.933Z,16.20
2023-07-26T07:55:00.529Z,16.41
2023-07-26T07:57:28.827Z,16.78
2023-07-26T07:59:57.820Z,16.92
2023-07-26T08:02:24.786Z,16.92
2023-07-26T08:04:51.330Z,16.83
2023-07-26T08:07:17.737Z,16.77
2023-07-26T08:09:44.234Z,16.50
2023-07-26T08:12:10.663Z,16.63
2023-07-26T08:14:37.146Z,16.61
2023-07-26T08:17:03.961Z,16.43
2023-07-26T08:19:30.615Z,16.18
2023-07-26T08:21:57.144Z,16.06
2023-07-26T08:24:24.282Z,15.99
2023-07-26T08:26:52.937Z,15.81
2023-07-26T08:29:19.412Z,15.96
2023-07-26T08:31:46.178Z,16.15
2023-07-26T08:34:12.658Z,16.47
2023-07-26T08:36:39.141Z,16.84
2023-07-26T08:39:05.856Z,16.98
2023-07-26T08:41:32.815Z,16.96
2023-07-26T08:44:02.702Z,16.78
2023-07-26T08:46:30.177Z,16.49
2023-07-26T08:48:57.761Z,16.49
2023-07-26T08:51:25.139Z,16.51
2023-07-26T08:53:53.104Z,16.63
2023-07-26T08:56:20.440Z,16.94
2023-07-26T08:58:47.241Z,17.57
2023-07-26T09:01:13.813Z,17.55
2023-07-26T09:03:42.100Z,17.06
2023-07-26T09:06:09.380Z,16.77
2023-07-26T09:08:36.631Z,16.73
2023-07-26T09:11:24.408Z,16.61
2023-07-26T09:13:54.972Z,17.01
2023-07-26T09:16:21.798Z,17.42
2023-07-26T09:19:02.651Z,17.41
2023-07-26T09:21:32.214Z,17.29
2023-07-26T09:24:00.402Z,17.77
2023-07-26T09:26:40.967Z,17.41
2023-07-26T09:29:16.579Z,17.55
2023-07-26T09:31:44.699Z,17.53
2023-07-26T09:34:14.025Z,17.20
2023-07-26T09:36:46.084Z,17.28
2023-07-26T09:39:13.957Z,17.52
2023-07-26T09:41:41.238Z,17.56
2023-07-26T09:44:13.720Z,17.64
2023-07-26T09:46:54.335Z,17.82
2023-07-26T09:49:25.082Z,17.75
2023-07-26T09:54:33.136Z,17.91
2023-07-26T09:57:01.177Z,17.81
2023-07-26T09:59:29.812Z,17.64
2023-07-26T10:02:00.791Z,17.65
2023-07-26T10:04:51.597Z,17.74
2023-07-26T10:07:19.743Z,17.55
2023-07-26T10:09:49.109Z,17.31
2023-07-26T10:12:16.193Z,17.19
2023-07-26T10:14:43.610Z,17.07
2023-07-26T10:17:11.300Z,16.36
2023-07-26T10:19:41.408Z,15.81
2023-07-26T10:22:08.333Z,15.56
2023-07-26T10:24:37.484Z,15.41
2023-07-26T10:27:05.248Z,15.12
2023-07-26T10:29:32.053Z,15.08
2023-07-26T10:32:07.565Z,14.82
2023-07-26T10:34:34.442Z,14.81
2023-07-26T10:37:17.678Z,14.57
2023-07-26T10:39:45.272Z,14.68
2023-07-26T10:42:26.648Z,14.76
2023-07-26T10:44:54.919Z,15.02
2023-07-26T10:47:21.958Z,15.36
2023-07-26T10:49:48.847Z,15.68
2023-07-26T10:52:16.096Z,15.80
2023-07-26T10:54:50.919Z,15.81
2023-07-26T10:57:23.144Z,15.83
2023-07-26T11:00:18.009Z,15.90
2023-07-26T11:02:49.417Z,15.85
2023-07-26T11:05:18.764Z,15.70
2023-07-26T11:08:03.123Z,15.71
2023-07-26T11:10:39.503Z,15.57
2023-07-26T11:13:15.330Z,15.74
2023-07-26T11:16:14.210Z,15.71
2023-07-26T11:18:41.347Z,15.84
2023-07-26T11:21:07.911Z,15.87
2023-07-26T11:23:34.491Z,16.02
2023-07-26T11:26:02.531Z,16.16
2023-07-26T11:28:34.002Z,16.40
2023-07-26T11:31:01.569Z,16.72
2023-07-26T11:33:40.178Z,16.89
2023-07-26T11:36:10.733Z,17.03
2023-07-26T11:38:43.316Z,17.74
2023-07-26T11:41:09.921Z,17.83
2023-07-26T11:43:39.415Z,18.07
2023-07-26T11:46:06.301Z,18.26
2023-07-26T11:48:34.649Z,18.61
2023-07-26T11:51:04.690Z,18.84
2023-07-26T11:53:44.132Z,19.17
2023-07-26T11:56:12.861Z,19.25
2023-07-26T11:58:39.551Z,19.59
2023-07-26T12:01:06.980Z,19.90
2023-07-26T12:03:34.184Z,19.88
2023-07-26T12:06:04.506Z,19.73
2023-07-26T12:08:36.170Z,19.56
2023-07-26T12:11:06.586Z,19.30
2023-07-26T12:13:35.012Z,19.49
2023-07-26T12:16:04.203Z,19.92
2023-07-26T12:18:31.584Z,20.04
2023-07-26T12:21:14.138Z,19.73
2023-07-26T12:24:02.980Z,20.08
2023-07-26T12:26:33.334Z,19.90
2023-07-26T12:29:01.963Z,20.28
2023-07-26T12:31:31.285Z,20.39
2023-07-26T12:34:02.359Z,20.28
2023-07-26T12:36:31.543Z,19.53
2023-07-26T12:38:59.093Z,19.42
2023-07-26T12:41:26.804Z,19.93
2023-07-26T12:43:55.484Z,20.03
2023-07-26T12:46:22.476Z,19.97
2023-07-26T12:48:49.538Z,19.51
2023-07-26T12:51:16.838Z,19.26
2023-07-26T12:53:43.413Z,19.14
2023-07-26T12:56:09.993Z,19.03
2023-07-26T12:58:36.428Z,19.03
2023-07-26T13:01:02.905Z,18.94
2023-07-26T13:03:29.729Z,19.01
2023-07-26T13:05:57.886Z,18.96
2023-07-26T13:08:24.427Z,18.85
2023-07-26T13:10:51.243Z,18.95
2023-07-26T13:13:17.663Z,18.96
2023-07-26T13:15:44.164Z,18.78
2023-07-26T13:18:10.680Z,18.58
2023-07-26T13:20:37.194Z,18.38
2023-07-26T13:23:03.805Z,18.19
2023-07-26T13:25:30.425Z,18.13
2023-07-26T13:27:59.906Z,18.02
2023-07-26T13:30:26.417Z,18.15
2023-07-26T13:32:52.886Z,18.27
2023-07-26T13:35:19.656Z,18.32
2023-07-26T13:37:46.366Z,18.53
2023-07-26T13:40:18.488Z,18.50
2023-07-26T13:42:44.983Z,18.67
2023-07-26T13:45:11.671Z,18.87
2023-07-26T13:47:38.446Z,19.13
2023-07-26T13:50:05.587Z,19.60
2023-07-26T13:52:32.127Z,19.92
2023-07-26T13:54:58.661Z,20.13
2023-07-26T13:57:25.882Z,20.49
2023-07-26T13:59:52.371Z,20.52
2023-07-26T14:02:21.537Z,20.62
2023-07-26T14:04:48.335Z,20.34
2023-07-26T14:07:14.989Z,20.55
2023-07-26T14:09:41.534Z,20.71
2023-07-26T14:12:09.059Z,20.93
2023-07-26T14:14:36.871Z,21.04
2023-07-26T14:17:03.772Z,21.05
2023-07-26T14:19:30.438Z,21.01
2023-07-26T14:21:57.030Z,20.60
2023-07-26T14:24:23.504Z,20.60
2023-07-26T14:26:50.245Z,20.78
2023-07-26T14:29:16.746Z,20.63
2023-07-26T14:31:43.169Z,20.55
2023-07-26T14:34:09.586Z,20.47
2023-07-26T14:36:36.500Z,20.32
2023-07-26T14:39:03.383Z,20.09
2023-07-26T14:41:30.225Z,19.90
2023-07-26T14:43:56.714Z,19.59
2023-07-26T14:46:23.163Z,19.51
2023-07-26T14:48:49.870Z,19.39
2023-07-26T14:51:16.326Z,19.48
2023-07-26T14:53:42.810Z,19.75
2023-07-26T14:56:09.274Z,19.93
2023-07-26T14:58:35.836Z,20.07
2023-07-26T15:01:03.027Z,20.63
2023-07-26T15:03:30.075Z,20.89
2023-07-26T15:05:56.879Z,21.10
2023-07-26T15:08:23.434Z,21.00
2023-07-26T15:10:51.607Z,20.73
2023-07-26T15:13:18.034Z,20.37
2023-07-26T15:15:44.530Z,19.89
2023-07-26T15:18:11.443Z,19.79
2023-07-26T15:20:38.758Z,19.42
2023-07-26T15:23:05.257Z,19.33
2023-07-26T15:25:31.877Z,19.23
2023-07-26T15:27:58.473Z,18.98
2023-07-26T15:30:25.284Z,18.84
2023-07-26T15:32:51.924Z,18.73
2023-07-26T15:35:18.509Z,18.70
2023-07-26T15:37:45.185Z,18.48
2023-07-26T15:40:12.020Z,17.84
2023-07-26T15:43:00.393Z,17.17
2023-07-26T15:45:54.647Z,16.41
2023-07-26T15:48:13.896Z,15.63
2023-07-26T15:50:54.105Z,15.35
2023-07-26T15:53:22.190Z,15.05
2023-07-26T15:55:50.988Z,15.06
2023-07-26T15:58:25.110Z,15.02
2023-07-26T16:00:53.292Z,15.01
2023-07-26T16:06:15.978Z,15.33
2023-07-26T16:11:05.664Z,15.64
2023-07-26T16:13:32.678Z,15.69
2023-07-26T16:18:31.030Z,16.07
2023-07-26T16:23:27.104Z,16.74
2023-07-26T16:25:53.552Z,16.85
2023-07-26T16:28:20.068Z,17.04
2023-07-26T16:30:47.266Z,17.35
2023-07-26T16:33:13.820Z,17.25
2023-07-26T16:35:40.333Z,17.35
2023-07-26T16:38:07.764Z,17.39
2023-07-26T16:40:34.283Z,17.39
2023-07-26T16:43:02.939Z,17.41
2023-07-26T16:45:30.982Z,17.55
2023-07-26T16:47:57.537Z,17.37
2023-07-26T16:50:24.022Z,17.33
2023-07-26T16:52:50.509Z,17.46
2023-07-26T16:55:16.955Z,17.44
2023-07-26T16:57:43.383Z,17.52
2023-07-26T17:00:10.604Z,17.47
2023-07-26T17:02:37.448Z,17.51
2023-07-26T17:05:05.691Z,17.68
2023-07-26T17:07:32.340Z,17.73
2023-07-26T17:09:58.973Z,17.63
2023-07-26T17:12:25.628Z,17.49
2023-07-26T17:14:52.028Z,17.11
2023-07-26T17:17:18.498Z,16.90
2023-07-26T17:19:44.926Z,16.88
2023-07-26T17:22:11.443Z,16.77
2023-07-26T17:24:38.075Z,16.68
2023-07-26T17:27:04.750Z,16.60
2023-07-26T17:29:31.607Z,16.54
2023-07-26T17:31:58.312Z,16.55
2023-07-26T17:34:25.073Z,16.52
2023-07-26T17:36:51.523Z,16.48
2023-07-26T17:39:18.023Z,16.38
2023-07-26T17:41:44.512Z,16.26
2023-07-26T17:44:11.172Z,16.45
2023-07-26T17:46:38.262Z,16.47
2023-07-26T17:49:04.790Z,16.67
2023-07-26T17:51:31.348Z,16.70
2023-07-26T17:53:57.856Z,16.80
2023-07-26T17:56:24.349Z,16.86
2023-07-26T17:58:50.931Z,16.88
2023-07-26T18:01:17.532Z,16.88
2023-07-26T18:03:44.104Z,17.10
2023-07-26T18:06:10.607Z,16.92
2023-07-26T18:08:37.864Z,16.83
2023-07-26T18:11:04.830Z,16.76
2023-07-26T18:13:32.299Z,16.70
2023-07-26T18:16:07.241Z,16.62
2023-07-26T18:18:34.606Z,16.60
2023-07-26T18:21:08.517Z,16.54
2023-07-26T18:23:35.958Z,16.26
2023-07-26T18:26:02.923Z,16.25
2023-07-26T18:28:29.761Z,16.16
2023-07-26T18:31:04.369Z,16.06
2023-07-26T18:33:31.446Z,15.97
2023-07-26T18:35:58.280Z,15.91
2023-07-26T18:38:25.805Z,15.86
2023-07-26T18:40:53.036Z,15.85
2023-07-26T18:43:22.490Z,15.78
2023-07-26T18:45:49.524Z,15.81
2023-07-26T18:48:16.368Z,15.74
2023-07-26T18:50:42.821Z,15.65
2023-07-26T18:53:09.401Z,15.53
2023-07-26T18:55:35.815Z,15.53
2023-07-26T18:58:02.402Z,15.44
2023-07-26T19:00:29.053Z,15.38
2023-07-26T19:02:55.635Z,15.36
2023-07-26T19:05:22.166Z,15.26
2023-07-26T19:07:48.807Z,15.22
2023-07-26T19:10:15.307Z,15.22
2023-07-26T19:12:41.797Z,15.23
2023-07-26T19:15:08.787Z,15.23
2023-07-26T19:17:35.466Z,15.22
2023-07-26T19:20:03.995Z,15.17
2023-07-26T19:22:31.210Z,15.11
2023-07-26T19:24:57.696Z,15.09
2023-07-26T19:27:25.729Z,15.10
2023-07-26T19:29:55.515Z,14.94
2023-07-26T19:32:22.041Z,14.81
2023-07-26T19:34:48.842Z,14.77
2023-07-26T19:37:15.310Z,14.68
2023-07-26T19:39:41.841Z,14.61
2023-07-26T19:42:08.434Z,14.59
2023-07-26T19:44:34.952Z,14.58
2023-07-26T19:47:01.718Z,14.53
2023-07-26T19:49:28.127Z,14.51
2023-07-26T19:51:54.609Z,14.48
2023-07-26T19:54:22.099Z,14.32
2023-07-26T19:56:48.883Z,14.21
2023-07-26T19:59:15.822Z,14.22
2023-07-26T20:01:42.480Z,14.16
2023-07-26T20:04:09.014Z,14.14
2023-07-26T20:06:35.793Z,14.11
2023-07-26T20:09:02.603Z,14.21
2023-07-26T20:11:29.226Z,14.19
2023-07-26T20:13:55.785Z,14.19
2023-07-26T20:16:23.026Z,14.25
2023-07-26T20:18:49.743Z,14.25
2023-07-26T20:21:16.238Z,14.23
2023-07-26T20:23:42.714Z,14.27
2023-07-26T20:26:09.176Z,14.25
2023-07-26T20:28:35.769Z,14.26
2023-07-26T20:31:04.102Z,14.23
2023-07-26T20:33:30.868Z,14.28
2023-07-26T20:35:57.451Z,14.11
2023-07-26T20:38:23.895Z,14.17
2023-07-26T20:40:50.776Z,14.17
2023-07-26T20:43:17.262Z,14.16
2023-07-26T20:45:43.706Z,14.18
2023-07-26T20:48:10.155Z,14.20
2023-07-26T20:50:36.931Z,14.14
2023-07-26T20:53:04.506Z,14.14
2023-07-26T20:55:31.315Z,14.17
2023-07-26T20:57:57.838Z,14.12
2023-07-26T21:00:24.286Z,14.14
2023-07-26T21:02:50.847Z,14.12
2023-07-26T21:05:17.423Z,14.06
2023-07-26T21:07:43.928Z,13.98
2023-07-26T21:10:10.468Z,13.98
2023-07-26T21:12:38.805Z,13.99
2023-07-26T21:15:06.100Z,14.03
2023-07-26T21:17:32.798Z,14.04
2023-07-26T21:19:59.445Z,14.03
2023-07-26T21:22:25.936Z,13.94
2023-07-26T21:24:52.511Z,13.87
2023-07-26T21:27:19.068Z,13.84
2023-07-26T21:29:45.662Z,13.85
2023-07-26T21:32:12.402Z,13.68
2023-07-26T21:34:38.953Z,13.65
2023-07-26T21:37:05.914Z,13.65
2023-07-26T21:39:32.955Z,13.65
2023-07-26T21:41:59.583Z,13.64
2023-07-26T21:44:28.892Z,13.57
2023-07-26T21:46:56.897Z,13.56
2023-07-26T21:49:23.394Z,13.56
2023-07-26T21:51:50.066Z,13.51
2023-07-26T21:54:16.510Z,13.47
2023-07-26T21:56:42.986Z,13.41
2023-07-26T21:59:10.098Z,13.39
2023-07-26T22:01:37.361Z,13.37
2023-07-26T22:04:04.335Z,13.36
2023-07-26T22:06:31.567Z,13.40
2023-07-26T22:08:58.275Z,13.41
2023-07-26T22:11:24.877Z,13.43
2023-07-26T22:13:51.465Z,13.36
2023-07-26T22:16:17.928Z,13.28
2023-07-26T22:18:44.441Z,13.29
2023-07-26T22:23:40.210Z,13.21
2023-07-26T22:26:15.136Z,13.20
2023-07-26T22:28:47.380Z,13.17
2023-07-26T22:31:14.930Z,13.22
2023-07-26T22:33:41.478Z,13.22
2023-07-26T22:36:09.137Z,13.14
2023-07-26T22:38:35.714Z,13.14
2023-07-26T22:41:02.936Z,13.12
2023-07-26T22:43:29.673Z,13.02
2023-07-26T22:45:56.272Z,13.02
2023-07-26T22:48:22.861Z,13.00
2023-07-26T22:50:49.469Z,13.00
2023-07-26T22:53:16.961Z,12.95
2023-07-26T22:55:43.473Z,12.88
2023-07-26T22:58:09.951Z,12.91
2023-07-26T23:00:36.645Z,12.94
2023-07-26T23:03:03.236Z,12.98
2023-07-26T23:05:30.025Z,12.99
2023-07-26T23:07:56.533Z,13.01
2023-07-26T23:10:23.033Z,12.98
2023-07-26T23:12:49.642Z,12.97
2023-07-26T23:15:16.405Z,13.02
2023-07-26T23:17:43.059Z,12.99
2023-07-26T23:20:09.818Z,12.87
2023-07-26T23:22:37.427Z,12.82
2023-07-26T23:25:04.391Z,12.85
2023-07-26T23:27:30.968Z,12.92
2023-07-26T23:29:57.493Z,12.90
2023-07-26T23:32:24.013Z,12.87
2023-07-26T23:34:50.685Z,12.87
2023-07-26T23:37:17.136Z,12.86
2023-07-26T23:39:43.559Z,12.82
2023-07-26T23:42:10.108Z,12.78
2023-07-26T23:44:37.074Z,12.78
2023-07-26T23:47:03.664Z,12.76
2023-07-26T23:49:30.606Z,12.79
2023-07-26T23:51:57.049Z,12.78
2023-07-26T23:54:23.527Z,12.81
2023-07-26T23:56:50.267Z,12.80
2023-07-26T23:59:16.750Z,12.79
